sensor_id;sensor_type;location;lat;lon;timestamp;P1;durP1;ratioP1;P2;durP2;ratioP2
55758;SDS011;41678;52.126;20.664;2024-03-08T00:00:17;61.78;;;25.42;;
55758;SDS011;41678;52.126;20.664;2024-03-08T00:06:00;78.80;;;26.88;;
55758;SDS011;41678;52.126;20.664;2024-03-08T00:11:19;59.17;;;25.10;;
55758;SDS011;41678;52.126;20.664;2024-03-08T00:16:40;61.23;;;26.87;;
55758;SDS011;41678;52.126;20.664;2024-03-08T00:22:03;58.90;;;25.52;;
55758;SDS011;41678;52.126;20.664;2024-03-08T00:27:22;67.93;;;24.45;;
55758;SDS011;41678;52.126;20.664;2024-03-08T00:32:41;54.70;;;25.13;;
55758;SDS011;41678;52.126;20.664;2024-03-08T00:38:01;59.15;;;24.33;;
55758;SDS011;41678;52.126;20.664;2024-03-08T00:43:21;58.15;;;24.25;;
55758;SDS011;41678;52.126;20.664;2024-03-08T00:48:41;53.10;;;22.52;;
55758;SDS011;41678;52.126;20.664;2024-03-08T00:54:02;61.50;;;20.73;;
55758;SDS011;41678;52.126;20.664;2024-03-08T00:59:22;55.45;;;19.15;;
55758;SDS011;41678;52.126;20.664;2024-03-08T01:04:41;42.45;;;18.33;;
55758;SDS011;41678;52.126;20.664;2024-03-08T01:10:02;62.50;;;23.80;;
55758;SDS011;41678;52.126;20.664;2024-03-08T01:15:23;52.42;;;20.33;;
55758;SDS011;41678;52.126;20.664;2024-03-08T01:20:43;48.17;;;19.60;;
55758;SDS011;41678;52.126;20.664;2024-03-08T01:26:02;57.85;;;22.58;;
55758;SDS011;41678;52.126;20.664;2024-03-08T01:31:22;58.35;;;22.60;;
55758;SDS011;41678;52.126;20.664;2024-03-08T01:36:41;53.20;;;23.10;;
55758;SDS011;41678;52.126;20.664;2024-03-08T01:42:01;46.42;;;22.75;;
55758;SDS011;41678;52.126;20.664;2024-03-08T01:47:21;57.15;;;24.92;;
55758;SDS011;41678;52.126;20.664;2024-03-08T01:52:42;63.92;;;25.52;;
55758;SDS011;41678;52.126;20.664;2024-03-08T01:58:03;43.65;;;20.17;;
55758;SDS011;41678;52.126;20.664;2024-03-08T02:03:24;61.40;;;23.48;;
55758;SDS011;41678;52.126;20.664;2024-03-08T02:08:44;65.18;;;23.20;;
55758;SDS011;41678;52.126;20.664;2024-03-08T02:14:04;68.68;;;23.42;;
55758;SDS011;41678;52.126;20.664;2024-03-08T02:19:25;47.93;;;22.80;;
55758;SDS011;41678;52.126;20.664;2024-03-08T02:24:45;51.70;;;24.58;;
55758;SDS011;41678;52.126;20.664;2024-03-08T02:30:05;64.35;;;23.83;;
55758;SDS011;41678;52.126;20.664;2024-03-08T02:35:25;47.85;;;21.92;;
55758;SDS011;41678;52.126;20.664;2024-03-08T02:40:45;50.85;;;22.38;;
55758;SDS011;41678;52.126;20.664;2024-03-08T02:46:06;53.43;;;20.47;;
55758;SDS011;41678;52.126;20.664;2024-03-08T02:51:25;66.18;;;25.95;;
55758;SDS011;41678;52.126;20.664;2024-03-08T02:56:45;44.28;;;21.42;;
55758;SDS011;41678;52.126;20.664;2024-03-08T03:02:05;42.53;;;18.73;;
55758;SDS011;41678;52.126;20.664;2024-03-08T03:07:26;44.22;;;19.98;;
55758;SDS011;41678;52.126;20.664;2024-03-08T03:12:47;46.72;;;18.10;;
55758;SDS011;41678;52.126;20.664;2024-03-08T03:18:08;44.03;;;20.47;;
55758;SDS011;41678;52.126;20.664;2024-03-08T03:23:27;54.00;;;21.05;;
55758;SDS011;41678;52.126;20.664;2024-03-08T03:28:47;42.92;;;18.58;;
55758;SDS011;41678;52.126;20.664;2024-03-08T03:34:07;60.95;;;21.35;;
55758;SDS011;41678;52.126;20.664;2024-03-08T03:39:28;44.95;;;19.85;;
55758;SDS011;41678;52.126;20.664;2024-03-08T03:44:50;47.38;;;19.63;;
55758;SDS011;41678;52.126;20.664;2024-03-08T03:50:12;67.17;;;24.47;;
55758;SDS011;41678;52.126;20.664;2024-03-08T03:55:31;65.22;;;23.30;;
55758;SDS011;41678;52.126;20.664;2024-03-08T04:00:52;54.03;;;19.42;;
55758;SDS011;41678;52.126;20.664;2024-03-08T04:06:11;50.60;;;17.23;;
55758;SDS011;41678;52.126;20.664;2024-03-08T04:11:31;44.15;;;19.08;;
55758;SDS011;41678;52.126;20.664;2024-03-08T04:16:50;49.83;;;15.90;;
55758;SDS011;41678;52.126;20.664;2024-03-08T04:22:09;34.25;;;17.75;;
55758;SDS011;41678;52.126;20.664;2024-03-08T04:27:29;44.05;;;17.83;;
55758;SDS011;41678;52.126;20.664;2024-03-08T04:32:49;34.13;;;15.25;;
55758;SDS011;41678;52.126;20.664;2024-03-08T04:38:09;45.67;;;17.48;;
55758;SDS011;41678;52.126;20.664;2024-03-08T04:43:29;54.38;;;14.55;;
55758;SDS011;41678;52.126;20.664;2024-03-08T04:48:49;46.50;;;16.75;;
55758;SDS011;41678;52.126;20.664;2024-03-08T04:54:08;55.88;;;17.02;;
55758;SDS011;41678;52.126;20.664;2024-03-08T04:59:29;38.08;;;16.23;;
55758;SDS011;41678;52.126;20.664;2024-03-08T05:04:48;40.60;;;18.38;;
55758;SDS011;41678;52.126;20.664;2024-03-08T05:10:08;60.33;;;18.05;;
55758;SDS011;41678;52.126;20.664;2024-03-08T05:15:28;38.75;;;17.20;;
55758;SDS011;41678;52.126;20.664;2024-03-08T05:20:47;38.60;;;17.33;;
55758;SDS011;41678;52.126;20.664;2024-03-08T05:26:07;63.05;;;20.35;;
55758;SDS011;41678;52.126;20.664;2024-03-08T05:31:27;42.72;;;17.40;;
55758;SDS011;41678;52.126;20.664;2024-03-08T05:36:48;39.25;;;18.67;;
55758;SDS011;41678;52.126;20.664;2024-03-08T05:42:10;63.20;;;20.92;;
55758;SDS011;41678;52.126;20.664;2024-03-08T05:47:30;71.97;;;16.80;;
55758;SDS011;41678;52.126;20.664;2024-03-08T05:52:49;58.90;;;20.10;;
55758;SDS011;41678;52.126;20.664;2024-03-08T05:58:08;26.42;;;13.30;;
55758;SDS011;41678;52.126;20.664;2024-03-08T06:03:28;50.88;;;19.55;;
55758;SDS011;41678;52.126;20.664;2024-03-08T06:08:49;50.08;;;16.92;;
55758;SDS011;41678;52.126;20.664;2024-03-08T06:14:10;52.20;;;23.80;;
55758;SDS011;41678;52.126;20.664;2024-03-08T06:19:29;58.50;;;19.85;;
55758;SDS011;41678;52.126;20.664;2024-03-08T06:24:49;45.95;;;17.65;;
55758;SDS011;41678;52.126;20.664;2024-03-08T06:30:08;61.90;;;22.38;;
55758;SDS011;41678;52.126;20.664;2024-03-08T06:35:29;52.38;;;25.02;;
55758;SDS011;41678;52.126;20.664;2024-03-08T06:46:10;53.60;;;18.35;;
55758;SDS011;41678;52.126;20.664;2024-03-08T06:51:33;60.25;;;20.83;;
55758;SDS011;41678;52.126;20.664;2024-03-08T06:56:52;47.30;;;20.52;;
55758;SDS011;41678;52.126;20.664;2024-03-08T07:02:12;46.45;;;20.40;;
55758;SDS011;41678;52.126;20.664;2024-03-08T07:07:32;60.17;;;20.95;;
55758;SDS011;41678;52.126;20.664;2024-03-08T07:12:53;42.92;;;17.63;;
55758;SDS011;41678;52.126;20.664;2024-03-08T07:18:12;51.03;;;19.60;;
55758;SDS011;41678;52.126;20.664;2024-03-08T07:23:33;33.60;;;17.48;;
55758;SDS011;41678;52.126;20.664;2024-03-08T07:29:05;53.65;;;20.73;;
55758;SDS011;41678;52.126;20.664;2024-03-08T07:34:25;57.30;;;20.92;;
55758;SDS011;41678;52.126;20.664;2024-03-08T07:39:44;47.53;;;20.65;;
55758;SDS011;41678;52.126;20.664;2024-03-08T07:45:04;51.72;;;20.45;;
55758;SDS011;41678;52.126;20.664;2024-03-08T07:50:26;60.40;;;21.95;;
55758;SDS011;41678;52.126;20.664;2024-03-08T07:55:46;54.75;;;21.48;;
55758;SDS011;41678;52.126;20.664;2024-03-08T08:01:06;38.70;;;17.52;;
55758;SDS011;41678;52.126;20.664;2024-03-08T08:06:26;47.92;;;16.30;;
55758;SDS011;41678;52.126;20.664;2024-03-08T08:11:46;28.58;;;10.75;;
55758;SDS011;41678;52.126;20.664;2024-03-08T08:17:06;27.92;;;12.23;;
55758;SDS011;41678;52.126;20.664;2024-03-08T08:22:28;27.73;;;12.07;;
55758;SDS011;41678;52.126;20.664;2024-03-08T08:27:47;33.50;;;13.13;;
55758;SDS011;41678;52.126;20.664;2024-03-08T08:33:06;32.90;;;12.30;;
55758;SDS011;41678;52.126;20.664;2024-03-08T08:38:27;24.47;;;11.97;;
55758;SDS011;41678;52.126;20.664;2024-03-08T08:43:47;30.58;;;12.75;;
55758;SDS011;41678;52.126;20.664;2024-03-08T08:49:08;24.15;;;10.90;;
55758;SDS011;41678;52.126;20.664;2024-03-08T08:54:33;31.90;;;10.82;;
55758;SDS011;41678;52.126;20.664;2024-03-08T08:59:53;29.67;;;10.68;;
55758;SDS011;41678;52.126;20.664;2024-03-08T09:05:12;25.38;;;10.63;;
55758;SDS011;41678;52.126;20.664;2024-03-08T09:10:34;22.35;;;11.32;;
55758;SDS011;41678;52.126;20.664;2024-03-08T09:15:53;26.90;;;10.07;;
55758;SDS011;41678;52.126;20.664;2024-03-08T09:21:14;28.17;;;10.20;;
55758;SDS011;41678;52.126;20.664;2024-03-08T09:26:33;21.00;;;10.35;;
55758;SDS011;41678;52.126;20.664;2024-03-08T09:31:53;29.70;;;10.35;;
55758;SDS011;41678;52.126;20.664;2024-03-08T09:37:12;29.50;;;11.48;;
55758;SDS011;41678;52.126;20.664;2024-03-08T09:42:31;31.80;;;11.60;;
55758;SDS011;41678;52.126;20.664;2024-03-08T09:47:51;17.08;;;7.93;;
55758;SDS011;41678;52.126;20.664;2024-03-08T09:53:12;34.70;;;11.25;;
55758;SDS011;41678;52.126;20.664;2024-03-08T09:58:31;36.35;;;13.30;;
55758;SDS011;41678;52.126;20.664;2024-03-08T10:03:54;30.50;;;13.63;;
55758;SDS011;41678;52.126;20.664;2024-03-08T10:09:14;30.25;;;10.50;;
55758;SDS011;41678;52.126;20.664;2024-03-08T10:14:35;29.58;;;12.75;;
55758;SDS011;41678;52.126;20.664;2024-03-08T10:19:59;31.45;;;12.50;;
55758;SDS011;41678;52.126;20.664;2024-03-08T10:25:19;32.65;;;11.77;;
55758;SDS011;41678;52.126;20.664;2024-03-08T10:30:38;32.35;;;12.15;;
55758;SDS011;41678;52.126;20.664;2024-03-08T10:35:58;25.05;;;10.10;;
55758;SDS011;41678;52.126;20.664;2024-03-08T10:41:18;21.90;;;9.95;;
55758;SDS011;41678;52.126;20.664;2024-03-08T10:52:08;30.90;;;11.00;;
55758;SDS011;41678;52.126;20.664;2024-03-08T10:57:31;29.88;;;11.70;;
55758;SDS011;41678;52.126;20.664;2024-03-08T11:02:51;38.13;;;10.00;;
55758;SDS011;41678;52.126;20.664;2024-03-08T11:08:19;21.45;;;8.93;;
55758;SDS011;41678;52.126;20.664;2024-03-08T11:13:40;24.55;;;8.82;;
55758;SDS011;41678;52.126;20.664;2024-03-08T11:24:38;34.45;;;10.13;;
55758;SDS011;41678;52.126;20.664;2024-03-08T11:30:03;31.63;;;9.50;;
55758;SDS011;41678;52.126;20.664;2024-03-08T11:35:30;29.65;;;11.30;;
55758;SDS011;41678;52.126;20.664;2024-03-08T11:40:50;21.30;;;10.00;;
55758;SDS011;41678;52.126;20.664;2024-03-08T11:46:10;20.33;;;8.88;;
55758;SDS011;41678;52.126;20.664;2024-03-08T11:51:31;26.13;;;9.75;;
55758;SDS011;41678;52.126;20.664;2024-03-08T11:56:52;27.63;;;10.38;;
55758;SDS011;41678;52.126;20.664;2024-03-08T12:02:12;24.20;;;9.00;;
55758;SDS011;41678;52.126;20.664;2024-03-08T12:07:33;26.63;;;11.45;;
55758;SDS011;41678;52.126;20.664;2024-03-08T12:12:53;31.25;;;9.95;;
55758;SDS011;41678;52.126;20.664;2024-03-08T12:23:35;25.02;;;10.65;;
55758;SDS011;41678;52.126;20.664;2024-03-08T12:28:55;27.63;;;9.93;;
55758;SDS011;41678;52.126;20.664;2024-03-08T12:34:39;31.95;;;11.00;;
55758;SDS011;41678;52.126;20.664;2024-03-08T12:39:58;19.27;;;9.70;;
55758;SDS011;41678;52.126;20.664;2024-03-08T12:45:18;22.45;;;10.15;;
55758;SDS011;41678;52.126;20.664;2024-03-08T12:50:37;27.08;;;10.70;;
55758;SDS011;41678;52.126;20.664;2024-03-08T12:55:57;29.27;;;10.38;;
55758;SDS011;41678;52.126;20.664;2024-03-08T13:01:17;27.30;;;9.95;;
55758;SDS011;41678;52.126;20.664;2024-03-08T13:06:36;26.65;;;10.20;;
55758;SDS011;41678;52.126;20.664;2024-03-08T13:11:56;23.92;;;9.95;;
55758;SDS011;41678;52.126;20.664;2024-03-08T13:17:17;25.65;;;10.55;;
55758;SDS011;41678;52.126;20.664;2024-03-08T13:22:37;23.45;;;8.82;;
55758;SDS011;41678;52.126;20.664;2024-03-08T13:27:57;25.63;;;10.93;;
55758;SDS011;41678;52.126;20.664;2024-03-08T13:33:18;23.70;;;8.52;;
55758;SDS011;41678;52.126;20.664;2024-03-08T13:38:38;15.68;;;7.40;;
55758;SDS011;41678;52.126;20.664;2024-03-08T13:43:58;19.08;;;7.03;;
55758;SDS011;41678;52.126;20.664;2024-03-08T13:49:17;25.80;;;10.30;;
55758;SDS011;41678;52.126;20.664;2024-03-08T13:54:37;22.25;;;9.82;;
55758;SDS011;41678;52.126;20.664;2024-03-08T13:59:58;23.05;;;9.25;;
55758;SDS011;41678;52.126;20.664;2024-03-08T14:05:18;18.98;;;7.97;;
55758;SDS011;41678;52.126;20.664;2024-03-08T14:10:39;23.35;;;8.80;;
55758;SDS011;41678;52.126;20.664;2024-03-08T14:15:59;21.30;;;7.70;;
55758;SDS011;41678;52.126;20.664;2024-03-08T14:21:18;23.77;;;8.40;;
55758;SDS011;41678;52.126;20.664;2024-03-08T14:26:38;24.45;;;8.75;;
55758;SDS011;41678;52.126;20.664;2024-03-08T14:31:58;22.92;;;8.95;;
55758;SDS011;41678;52.126;20.664;2024-03-08T14:37:18;34.72;;;10.27;;
55758;SDS011;41678;52.126;20.664;2024-03-08T14:42:42;21.98;;;8.75;;
55758;SDS011;41678;52.126;20.664;2024-03-08T14:48:02;24.17;;;9.05;;
55758;SDS011;41678;52.126;20.664;2024-03-08T14:53:22;26.05;;;9.88;;
55758;SDS011;41678;52.126;20.664;2024-03-08T14:58:42;26.98;;;10.70;;
55758;SDS011;41678;52.126;20.664;2024-03-08T15:04:03;25.60;;;9.93;;
55758;SDS011;41678;52.126;20.664;2024-03-08T15:09:27;30.20;;;9.15;;
55758;SDS011;41678;52.126;20.664;2024-03-08T15:14:47;27.50;;;9.48;;
55758;SDS011;41678;52.126;20.664;2024-03-08T15:20:10;29.75;;;9.43;;
55758;SDS011;41678;52.126;20.664;2024-03-08T15:25:34;27.00;;;8.77;;
55758;SDS011;41678;52.126;20.664;2024-03-08T15:36:24;26.08;;;10.13;;
55758;SDS011;41678;52.126;20.664;2024-03-08T15:41:48;20.90;;;8.90;;
55758;SDS011;41678;52.126;20.664;2024-03-08T15:47:07;26.98;;;8.57;;
55758;SDS011;41678;52.126;20.664;2024-03-08T15:52:30;35.00;;;9.05;;
55758;SDS011;41678;52.126;20.664;2024-03-08T15:57:50;29.17;;;9.88;;
55758;SDS011;41678;52.126;20.664;2024-03-08T16:03:10;26.55;;;11.23;;
55758;SDS011;41678;52.126;20.664;2024-03-08T16:08:31;25.57;;;10.37;;
55758;SDS011;41678;52.126;20.664;2024-03-08T16:13:52;31.80;;;13.87;;
55758;SDS011;41678;52.126;20.664;2024-03-08T16:19:11;60.70;;;19.85;;
55758;SDS011;41678;52.126;20.664;2024-03-08T16:24:33;48.42;;;22.67;;
55758;SDS011;41678;52.126;20.664;2024-03-08T16:29:53;58.53;;;21.00;;
55758;SDS011;41678;52.126;20.664;2024-03-08T16:35:13;55.33;;;16.15;;
55758;SDS011;41678;52.126;20.664;2024-03-08T16:40:35;68.57;;;21.88;;
55758;SDS011;41678;52.126;20.664;2024-03-08T16:45:56;161.07;;;45.80;;
55758;SDS011;41678;52.126;20.664;2024-03-08T16:51:18;178.40;;;51.65;;
55758;SDS011;41678;52.126;20.664;2024-03-08T16:56:37;166.48;;;47.53;;
55758;SDS011;41678;52.126;20.664;2024-03-08T17:01:57;167.73;;;47.30;;
55758;SDS011;41678;52.126;20.664;2024-03-08T17:07:19;123.63;;;36.53;;
55758;SDS011;41678;52.126;20.664;2024-03-08T17:18:03;81.65;;;27.08;;
55758;SDS011;41678;52.126;20.664;2024-03-08T17:23:27;130.23;;;31.77;;
55758;SDS011;41678;52.126;20.664;2024-03-08T17:28:47;88.03;;;28.75;;
55758;SDS011;41678;52.126;20.664;2024-03-08T17:34:07;72.47;;;24.00;;
55758;SDS011;41678;52.126;20.664;2024-03-08T17:39:29;66.28;;;19.38;;
55758;SDS011;41678;52.126;20.664;2024-03-08T17:44:49;63.63;;;18.13;;
55758;SDS011;41678;52.126;20.664;2024-03-08T17:50:09;61.20;;;15.82;;
55758;SDS011;41678;52.126;20.664;2024-03-08T17:55:33;38.58;;;13.43;;
55758;SDS011;41678;52.126;20.664;2024-03-08T18:00:53;36.85;;;15.15;;
55758;SDS011;41678;52.126;20.664;2024-03-08T18:06:13;55.63;;;15.10;;
55758;SDS011;41678;52.126;20.664;2024-03-08T18:11:33;77.57;;;23.65;;
55758;SDS011;41678;52.126;20.664;2024-03-08T18:16:54;61.50;;;24.35;;
55758;SDS011;41678;52.126;20.664;2024-03-08T18:22:14;77.53;;;27.70;;
55758;SDS011;41678;52.126;20.664;2024-03-08T18:27:34;62.20;;;27.13;;
55758;SDS011;41678;52.126;20.664;2024-03-08T18:32:54;64.32;;;25.60;;
55758;SDS011;41678;52.126;20.664;2024-03-08T18:38:13;71.47;;;27.17;;
55758;SDS011;41678;52.126;20.664;2024-03-08T18:43:33;71.07;;;25.90;;
55758;SDS011;41678;52.126;20.664;2024-03-08T18:48:53;66.22;;;23.77;;
55758;SDS011;41678;52.126;20.664;2024-03-08T18:54:12;76.88;;;27.13;;
55758;SDS011;41678;52.126;20.664;2024-03-08T18:59:32;84.90;;;31.27;;
55758;SDS011;41678;52.126;20.664;2024-03-08T19:04:51;75.82;;;30.13;;
55758;SDS011;41678;52.126;20.664;2024-03-08T19:10:14;94.45;;;34.53;;
55758;SDS011;41678;52.126;20.664;2024-03-08T19:15:41;93.15;;;31.90;;
55758;SDS011;41678;52.126;20.664;2024-03-08T19:21:01;86.75;;;27.90;;
55758;SDS011;41678;52.126;20.664;2024-03-08T19:26:22;95.63;;;30.70;;
55758;SDS011;41678;52.126;20.664;2024-03-08T19:31:42;82.05;;;31.83;;
55758;SDS011;41678;52.126;20.664;2024-03-08T19:37:03;81.70;;;32.85;;
55758;SDS011;41678;52.126;20.664;2024-03-08T19:42:25;102.32;;;38.58;;
55758;SDS011;41678;52.126;20.664;2024-03-08T19:47:46;151.98;;;51.58;;
55758;SDS011;41678;52.126;20.664;2024-03-08T19:53:06;160.75;;;46.88;;
55758;SDS011;41678;52.126;20.664;2024-03-08T19:58:27;97.57;;;40.97;;
55758;SDS011;41678;52.126;20.664;2024-03-08T20:03:46;135.25;;;44.85;;
55758;SDS011;41678;52.126;20.664;2024-03-08T20:09:06;124.05;;;38.88;;
55758;SDS011;41678;52.126;20.664;2024-03-08T20:14:26;90.03;;;34.05;;
55758;SDS011;41678;52.126;20.664;2024-03-08T20:19:47;113.05;;;36.95;;
55758;SDS011;41678;52.126;20.664;2024-03-08T20:25:06;74.43;;;32.47;;
55758;SDS011;41678;52.126;20.664;2024-03-08T20:30:32;88.75;;;33.85;;
55758;SDS011;41678;52.126;20.664;2024-03-08T20:35:52;96.78;;;34.70;;
55758;SDS011;41678;52.126;20.664;2024-03-08T20:41:11;88.22;;;34.47;;
55758;SDS011;41678;52.126;20.664;2024-03-08T20:46:31;114.68;;;35.97;;
55758;SDS011;41678;52.126;20.664;2024-03-08T20:51:50;80.97;;;33.45;;
55758;SDS011;41678;52.126;20.664;2024-03-08T20:57:10;75.32;;;32.05;;
55758;SDS011;41678;52.126;20.664;2024-03-08T21:02:29;104.28;;;41.72;;
55758;SDS011;41678;52.126;20.664;2024-03-08T21:07:50;138.70;;;47.83;;
55758;SDS011;41678;52.126;20.664;2024-03-08T21:13:10;160.43;;;51.60;;
55758;SDS011;41678;52.126;20.664;2024-03-08T21:18:29;144.70;;;47.13;;
55758;SDS011;41678;52.126;20.664;2024-03-08T21:23:50;146.75;;;51.38;;
55758;SDS011;41678;52.126;20.664;2024-03-08T21:29:09;198.45;;;56.83;;
55758;SDS011;41678;52.126;20.664;2024-03-08T21:34:29;188.27;;;56.65;;
55758;SDS011;41678;52.126;20.664;2024-03-08T21:39:48;189.85;;;58.78;;
55758;SDS011;41678;52.126;20.664;2024-03-08T21:45:08;152.18;;;53.83;;
55758;SDS011;41678;52.126;20.664;2024-03-08T21:50:28;141.40;;;51.63;;
55758;SDS011;41678;52.126;20.664;2024-03-08T21:55:52;156.38;;;46.28;;
55758;SDS011;41678;52.126;20.664;2024-03-08T22:01:11;126.82;;;42.95;;
55758;SDS011;41678;52.126;20.664;2024-03-08T22:06:31;144.38;;;40.22;;
55758;SDS011;41678;52.126;20.664;2024-03-08T22:11:51;109.15;;;37.60;;
55758;SDS011;41678;52.126;20.664;2024-03-08T22:17:11;142.05;;;45.47;;
55758;SDS011;41678;52.126;20.664;2024-03-08T22:22:34;154.43;;;44.20;;
55758;SDS011;41678;52.126;20.664;2024-03-08T22:27:55;130.55;;;42.33;;
55758;SDS011;41678;52.126;20.664;2024-03-08T22:33:14;144.25;;;43.08;;
55758;SDS011;41678;52.126;20.664;2024-03-08T22:38:34;110.97;;;37.92;;
55758;SDS011;41678;52.126;20.664;2024-03-08T22:43:56;124.43;;;40.55;;
55758;SDS011;41678;52.126;20.664;2024-03-08T22:49:16;131.10;;;40.03;;
55758;SDS011;41678;52.126;20.664;2024-03-08T22:54:37;121.88;;;35.35;;
55758;SDS011;41678;52.126;20.664;2024-03-08T22:59:57;114.00;;;34.63;;
55758;SDS011;41678;52.126;20.664;2024-03-08T23:05:17;102.00;;;33.50;;
55758;SDS011;41678;52.126;20.664;2024-03-08T23:10:38;89.22;;;32.58;;
55758;SDS011;41678;52.126;20.664;2024-03-08T23:15:59;88.90;;;32.03;;
55758;SDS011;41678;52.126;20.664;2024-03-08T23:21:20;85.10;;;31.60;;
55758;SDS011;41678;52.126;20.664;2024-03-08T23:26:40;105.18;;;36.65;;
55758;SDS011;41678;52.126;20.664;2024-03-08T23:32:01;111.22;;;35.70;;
55758;SDS011;41678;52.126;20.664;2024-03-08T23:37:21;103.32;;;33.50;;
55758;SDS011;41678;52.126;20.664;2024-03-08T23:42:42;88.53;;;30.58;;
55758;SDS011;41678;52.126;20.664;2024-03-08T23:48:03;93.85;;;33.30;;
55758;SDS011;41678;52.126;20.664;2024-03-08T23:53:25;75.50;;;29.23;;
55758;SDS011;41678;52.126;20.664;2024-03-08T23:58:45;86.15;;;29.00;;
